sensor_id;sensor_type;location;lat;lon;timestamp;pressure;altitude;pressure_sealevel;temperature;humidity
32131;BME280;18639;50.716;7.086;2023-09-19T00:01:54;99811.00;;;15.15;100.00
32131;BME280;18639;50.716;7.086;2023-09-19T00:04:22;99769.69;;;14.93;100.00
32131;BME280;18639;50.716;7.086;2023-09-19T00:06:54;99775.41;;;14.96;100.00
32131;BME280;18639;50.716;7.086;2023-09-19T00:09:19;99799.09;;;15.03;100.00
32131;BME280;18639;50.716;7.086;2023-09-19T00:11:44;99800.31;;;15.08;100.00
32131;BME280;18639;50.716;7.086;2023-09-19T00:14:12;99769.25;;;14.97;100.00
32131;BME280;18639;50.716;7.086;2023-09-19T00:16:39;99822.19;;;15.25;100.00
32131;BME280;18639;50.716;7.086;2023-09-19T00:19:06;99819.31;;;15.28;100.00
32131;BME280;18639;50.716;7.086;2023-09-19T00:21:32;99779.25;;;15.02;100.00
32131;BME280;18639;50.716;7.086;2023-09-19T00:23:57;99819.72;;;15.24;100.00
32131;BME280;18639;50.716;7.086;2023-09-19T00:26:23;99814.81;;;15.21;100.00
32131;BME280;18639;50.716;7.086;2023-09-19T00:28:52;99807.66;;;15.23;100.00
32131;BME280;18639;50.716;7.086;2023-09-19T00:31:17;99779.50;;;15.08;100.00
32131;BME280;18639;50.716;7.086;2023-09-19T00:33:43;99786.31;;;15.19;100.00
32131;BME280;18639;50.716;7.086;2023-09-19T00:36:08;99815.31;;;15.34;100.00
32131;BME280;18639;50.716;7.086;2023-09-19T00:38:34;99742.97;;;14.91;100.00
32131;BME280;18639;50.716;7.086;2023-09-19T00:40:59;99785.22;;;15.22;100.00
32131;BME280;18639;50.716;7.086;2023-09-19T00:43:25;99805.44;;;15.37;100.00
32131;BME280;18639;50.716;7.086;2023-09-19T00:45:52;99792.88;;;15.23;100.00
32131;BME280;18639;50.716;7.086;2023-09-19T00:48:20;99809.44;;;15.32;100.00
32131;BME280;18639;50.716;7.086;2023-09-19T00:50:47;99808.88;;;15.28;100.00
32131;BME280;18639;50.716;7.086;2023-09-19T00:53:14;99815.91;;;15.28;100.00
32131;BME280;18639;50.716;7.086;2023-09-19T00:55:40;99821.25;;;15.26;100.00
32131;BME280;18639;50.716;7.086;2023-09-19T00:58:08;99821.91;;;15.28;100.00
32131;BME280;18639;50.716;7.086;2023-09-19T01:00:35;99817.56;;;15.19;100.00
32131;BME280;18639;50.716;7.086;2023-09-19T01:03:01;99790.63;;;15.01;100.00
32131;BME280;18639;50.716;7.086;2023-09-19T01:05:27;99837.53;;;15.28;100.00
32131;BME280;18639;50.716;7.086;2023-09-19T01:07:53;99828.75;;;15.29;100.00
32131;BME280;18639;50.716;7.086;2023-09-19T01:10:20;99831.09;;;15.23;100.00
32131;BME280;18639;50.716;7.086;2023-09-19T01:12:57;99841.13;;;15.27;100.00
32131;BME280;18639;50.716;7.086;2023-09-19T01:29:26;99850.94;;;15.43;100.00
32131;BME280;18639;50.716;7.086;2023-09-19T01:32:03;99851.75;;;15.43;100.00
32131;BME280;18639;50.716;7.086;2023-09-19T01:34:49;99852.03;;;15.40;100.00
32131;BME280;18639;50.716;7.086;2023-09-19T01:37:19;99844.59;;;15.45;100.00
32131;BME280;18639;50.716;7.086;2023-09-19T01:39:51;99854.59;;;15.50;100.00
32131;BME280;18639;50.716;7.086;2023-09-19T01:42:49;99860.38;;;15.53;100.00
32131;BME280;18639;50.716;7.086;2023-09-19T01:45:35;99860.22;;;15.55;100.00
32131;BME280;18639;50.716;7.086;2023-09-19T01:48:19;99867.63;;;15.60;100.00
32131;BME280;18639;50.716;7.086;2023-09-19T01:53:26;99867.34;;;15.63;100.00
32131;BME280;18639;50.716;7.086;2023-09-19T01:55:54;99868.16;;;15.63;100.00
32131;BME280;18639;50.716;7.086;2023-09-19T02:00:58;99841.34;;;15.43;100.00
32131;BME280;18639;50.716;7.086;2023-09-19T02:03:25;99877.75;;;15.63;100.00
32131;BME280;18639;50.716;7.086;2023-09-19T02:05:52;99869.25;;;15.51;100.00
32131;BME280;18639;50.716;7.086;2023-09-19T02:08:20;99867.50;;;15.51;100.00
32131;BME280;18639;50.716;7.086;2023-09-19T02:10:45;99857.75;;;15.44;100.00
32131;BME280;18639;50.716;7.086;2023-09-19T02:13:21;99865.16;;;15.48;100.00
32131;BME280;18639;50.716;7.086;2023-09-19T02:15:47;99864.38;;;15.38;100.00
32131;BME280;18639;50.716;7.086;2023-09-19T02:18:13;99877.94;;;15.42;100.00
32131;BME280;18639;50.716;7.086;2023-09-19T02:20:39;99898.03;;;15.49;100.00
32131;BME280;18639;50.716;7.086;2023-09-19T02:23:06;99905.19;;;15.47;100.00
32131;BME280;18639;50.716;7.086;2023-09-19T02:25:31;99909.56;;;15.47;100.00
32131;BME280;18639;50.716;7.086;2023-09-19T02:27:57;99914.25;;;15.43;100.00
32131;BME280;18639;50.716;7.086;2023-09-19T02:30:24;99907.66;;;15.39;100.00
32131;BME280;18639;50.716;7.086;2023-09-19T02:32:50;99864.31;;;15.11;100.00
32131;BME280;18639;50.716;7.086;2023-09-19T02:35:16;99896.75;;;15.26;100.00
32131;BME280;18639;50.716;7.086;2023-09-19T02:37:41;99862.81;;;14.99;100.00
32131;BME280;18639;50.716;7.086;2023-09-19T02:40:07;99859.25;;;14.90;100.00
32131;BME280;18639;50.716;7.086;2023-09-19T02:42:44;99899.50;;;15.15;100.00
32131;BME280;18639;50.716;7.086;2023-09-19T02:45:14;99900.72;;;15.21;100.00
32131;BME280;18639;50.716;7.086;2023-09-19T02:47:42;99889.94;;;15.06;100.00
32131;BME280;18639;50.716;7.086;2023-09-19T02:50:08;99909.63;;;15.08;100.00
32131;BME280;18639;50.716;7.086;2023-09-19T02:52:37;99918.97;;;15.11;100.00
32131;BME280;18639;50.716;7.086;2023-09-19T02:55:02;99916.91;;;15.05;100.00
32131;BME280;18639;50.716;7.086;2023-09-19T02:57:29;99911.72;;;14.95;100.00
32131;BME280;18639;50.716;7.086;2023-09-19T02:59:56;99882.13;;;14.67;100.00
32131;BME280;18639;50.716;7.086;2023-09-19T03:02:21;99879.25;;;14.61;100.00
32131;BME280;18639;50.716;7.086;2023-09-19T03:04:49;99919.22;;;14.89;100.00
32131;BME280;18639;50.716;7.086;2023-09-19T03:07:16;99905.66;;;14.75;100.00
32131;BME280;18639;50.716;7.086;2023-09-19T03:09:42;99902.66;;;14.70;100.00
32131;BME280;18639;50.716;7.086;2023-09-19T03:12:08;99868.97;;;14.50;100.00
32131;BME280;18639;50.716;7.086;2023-09-19T03:14:33;99887.72;;;14.53;100.00
32131;BME280;18639;50.716;7.086;2023-09-19T03:17:00;99931.66;;;14.75;100.00
32131;BME280;18639;50.716;7.086;2023-09-19T03:19:26;99936.47;;;14.70;100.00
32131;BME280;18639;50.716;7.086;2023-09-19T03:21:51;99921.66;;;14.52;100.00
32131;BME280;18639;50.716;7.086;2023-09-19T03:24:17;99937.81;;;14.55;100.00
32131;BME280;18639;50.716;7.086;2023-09-19T03:26:42;99930.13;;;14.44;100.00
32131;BME280;18639;50.716;7.086;2023-09-19T03:29:07;99960.81;;;14.60;100.00
32131;BME280;18639;50.716;7.086;2023-09-19T03:31:35;99948.19;;;14.46;100.00
32131;BME280;18639;50.716;7.086;2023-09-19T03:34:02;99959.16;;;14.59;100.00
32131;BME280;18639;50.716;7.086;2023-09-19T03:36:29;99892.00;;;14.14;100.00
32131;BME280;18639;50.716;7.086;2023-09-19T03:38:54;99955.88;;;14.47;100.00
32131;BME280;18639;50.716;7.086;2023-09-19T03:41:20;99948.88;;;14.48;100.00
32131;BME280;18639;50.716;7.086;2023-09-19T03:43:45;99950.25;;;14.42;100.00
32131;BME280;18639;50.716;7.086;2023-09-19T03:46:10;99954.75;;;14.40;100.00
32131;BME280;18639;50.716;7.086;2023-09-19T03:48:37;99951.00;;;14.33;100.00
32131;BME280;18639;50.716;7.086;2023-09-19T03:51:03;99945.78;;;14.33;100.00
32131;BME280;18639;50.716;7.086;2023-09-19T03:53:28;99926.34;;;14.18;100.00
32131;BME280;18639;50.716;7.086;2023-09-19T03:55:54;99959.41;;;14.37;100.00
32131;BME280;18639;50.716;7.086;2023-09-19T03:58:19;99919.72;;;14.04;100.00
32131;BME280;18639;50.716;7.086;2023-09-19T04:00:45;99942.34;;;14.23;100.00
32131;BME280;18639;50.716;7.086;2023-09-19T04:03:11;99937.94;;;14.14;100.00
32131;BME280;18639;50.716;7.086;2023-09-19T04:05:44;99908.09;;;13.99;100.00
32131;BME280;18639;50.716;7.086;2023-09-19T04:08:10;99943.03;;;14.15;100.00
32131;BME280;18639;50.716;7.086;2023-09-19T04:10:35;99938.50;;;14.17;100.00
32131;BME280;18639;50.716;7.086;2023-09-19T04:13:00;99939.31;;;14.18;100.00
32131;BME280;18639;50.716;7.086;2023-09-19T04:15:26;99945.63;;;14.15;100.00
32131;BME280;18639;50.716;7.086;2023-09-19T04:17:51;99918.47;;;13.99;100.00
32131;BME280;18639;50.716;7.086;2023-09-19T04:20:17;99951.63;;;14.16;100.00
32131;BME280;18639;50.716;7.086;2023-09-19T04:22:43;99950.25;;;14.12;100.00
32131;BME280;18639;50.716;7.086;2023-09-19T04:25:08;99925.41;;;13.88;100.00
32131;BME280;18639;50.716;7.086;2023-09-19T04:27:34;99967.22;;;14.16;100.00
32131;BME280;18639;50.716;7.086;2023-09-19T04:29:59;99954.75;;;14.10;100.00
32131;BME280;18639;50.716;7.086;2023-09-19T04:32:28;99961.06;;;14.17;100.00
32131;BME280;18639;50.716;7.086;2023-09-19T04:34:54;99911.28;;;13.81;100.00
32131;BME280;18639;50.716;7.086;2023-09-19T04:37:20;99955.44;;;14.12;100.00
32131;BME280;18639;50.716;7.086;2023-09-19T04:39:46;99958.97;;;14.11;100.00
32131;BME280;18639;50.716;7.086;2023-09-19T04:42:13;99942.56;;;14.10;100.00
32131;BME280;18639;50.716;7.086;2023-09-19T04:44:39;99957.50;;;14.18;100.00
32131;BME280;18639;50.716;7.086;2023-09-19T04:47:05;99945.44;;;14.07;100.00
32131;BME280;18639;50.716;7.086;2023-09-19T04:49:31;99961.78;;;14.19;100.00
32131;BME280;18639;50.716;7.086;2023-09-19T04:51:56;99953.53;;;14.14;100.00
32131;BME280;18639;50.716;7.086;2023-09-19T04:54:21;99957.13;;;14.22;100.00
32131;BME280;18639;50.716;7.086;2023-09-19T04:56:47;99946.69;;;14.13;100.00
32131;BME280;18639;50.716;7.086;2023-09-19T04:59:12;99943.81;;;14.16;100.00
32131;BME280;18639;50.716;7.086;2023-09-19T05:01:37;99950.53;;;14.18;100.00
32131;BME280;18639;50.716;7.086;2023-09-19T05:04:03;99947.94;;;14.18;100.00
32131;BME280;18639;50.716;7.086;2023-09-19T05:06:30;99941.63;;;14.11;100.00
32131;BME280;18639;50.716;7.086;2023-09-19T05:08:55;99959.03;;;14.20;100.00
32131;BME280;18639;50.716;7.086;2023-09-19T05:11:21;99955.19;;;14.15;100.00
32131;BME280;18639;50.716;7.086;2023-09-19T05:13:47;99957.09;;;14.13;100.00
32131;BME280;18639;50.716;7.086;2023-09-19T05:16:14;99954.34;;;14.05;100.00
32131;BME280;18639;50.716;7.086;2023-09-19T05:18:41;99951.28;;;14.00;100.00
32131;BME280;18639;50.716;7.086;2023-09-19T05:21:07;99980.47;;;14.13;100.00
32131;BME280;18639;50.716;7.086;2023-09-19T05:23:33;99982.25;;;14.12;100.00
32131;BME280;18639;50.716;7.086;2023-09-19T05:25:58;99974.72;;;14.09;100.00
32131;BME280;18639;50.716;7.086;2023-09-19T05:28:25;99997.31;;;14.18;100.00
32131;BME280;18639;50.716;7.086;2023-09-19T05:30:52;99990.31;;;14.09;100.00
32131;BME280;18639;50.716;7.086;2023-09-19T05:33:18;100008.53;;;14.19;100.00
32131;BME280;18639;50.716;7.086;2023-09-19T05:35:43;99996.78;;;14.15;100.00
32131;BME280;18639;50.716;7.086;2023-09-19T05:38:10;100000.13;;;14.06;100.00
32131;BME280;18639;50.716;7.086;2023-09-19T05:40:38;100012.63;;;14.21;100.00
32131;BME280;18639;50.716;7.086;2023-09-19T05:43:04;100008.00;;;14.15;100.00
32131;BME280;18639;50.716;7.086;2023-09-19T05:45:31;100025.63;;;14.21;100.00
32131;BME280;18639;50.716;7.086;2023-09-19T05:48:07;100012.91;;;14.18;100.00
32131;BME280;18639;50.716;7.086;2023-09-19T05:50:32;100013.97;;;14.16;100.00
32131;BME280;18639;50.716;7.086;2023-09-19T05:52:59;100031.16;;;14.28;100.00
32131;BME280;18639;50.716;7.086;2023-09-19T05:55:24;100018.53;;;14.23;100.00
32131;BME280;18639;50.716;7.086;2023-09-19T05:57:51;100017.59;;;14.24;100.00
32131;BME280;18639;50.716;7.086;2023-09-19T06:00:20;100037.59;;;14.33;100.00
32131;BME280;18639;50.716;7.086;2023-09-19T06:02:55;100033.50;;;14.31;100.00
32131;BME280;18639;50.716;7.086;2023-09-19T06:05:21;100028.31;;;14.31;100.00
32131;BME280;18639;50.716;7.086;2023-09-19T06:07:47;100048.78;;;14.45;100.00
32131;BME280;18639;50.716;7.086;2023-09-19T06:10:13;100038.31;;;14.36;100.00
32131;BME280;18639;50.716;7.086;2023-09-19T06:12:42;100053.03;;;14.46;100.00
32131;BME280;18639;50.716;7.086;2023-09-19T06:15:12;100060.56;;;14.49;100.00
32131;BME280;18639;50.716;7.086;2023-09-19T06:17:46;100031.78;;;14.41;100.00
32131;BME280;18639;50.716;7.086;2023-09-19T06:20:12;100053.03;;;14.46;100.00
32131;BME280;18639;50.716;7.086;2023-09-19T06:22:41;100068.25;;;14.60;100.00
32131;BME280;18639;50.716;7.086;2023-09-19T06:25:08;100059.59;;;14.50;100.00
32131;BME280;18639;50.716;7.086;2023-09-19T06:27:36;100034.03;;;14.25;100.00
32131;BME280;18639;50.716;7.086;2023-09-19T06:30:02;100057.53;;;14.44;100.00
32131;BME280;18639;50.716;7.086;2023-09-19T06:32:28;100050.00;;;14.41;100.00
32131;BME280;18639;50.716;7.086;2023-09-19T06:34:53;100076.75;;;14.62;100.00
32131;BME280;18639;50.716;7.086;2023-09-19T06:37:27;100082.28;;;14.69;100.00
32131;BME280;18639;50.716;7.086;2023-09-19T06:39:52;100023.78;;;14.33;100.00
32131;BME280;18639;50.716;7.086;2023-09-19T06:42:18;100066.50;;;14.70;100.00
32131;BME280;18639;50.716;7.086;2023-09-19T06:44:43;100073.25;;;14.73;100.00
32131;BME280;18639;50.716;7.086;2023-09-19T06:47:09;100049.94;;;14.62;100.00
32131;BME280;18639;50.716;7.086;2023-09-19T06:49:35;100059.66;;;14.69;100.00
32131;BME280;18639;50.716;7.086;2023-09-19T06:52:01;100093.56;;;14.98;100.00
32131;BME280;18639;50.716;7.086;2023-09-19T06:54:28;100043.38;;;14.67;100.00
32131;BME280;18639;50.716;7.086;2023-09-19T06:56:56;100059.16;;;14.85;100.00
32131;BME280;18639;50.716;7.086;2023-09-19T06:59:24;100090.31;;;15.06;100.00
32131;BME280;18639;50.716;7.086;2023-09-19T07:01:49;100047.25;;;14.83;100.00
32131;BME280;18639;50.716;7.086;2023-09-19T07:04:16;100105.53;;;15.20;100.00
32131;BME280;18639;50.716;7.086;2023-09-19T07:06:42;100081.41;;;15.18;100.00
32131;BME280;18639;50.716;7.086;2023-09-19T07:09:07;100090.63;;;15.32;100.00
32131;BME280;18639;50.716;7.086;2023-09-19T07:11:33;100085.97;;;15.35;100.00
32131;BME280;18639;50.716;7.086;2023-09-19T07:13:59;100102.72;;;15.52;100.00
32131;BME280;18639;50.716;7.086;2023-09-19T07:16:24;100095.44;;;15.55;100.00
32131;BME280;18639;50.716;7.086;2023-09-19T07:18:54;100086.69;;;15.56;100.00
32131;BME280;18639;50.716;7.086;2023-09-19T07:21:21;100094.91;;;15.71;100.00
32131;BME280;18639;50.716;7.086;2023-09-19T07:23:47;100042.09;;;15.50;100.00
32131;BME280;18639;50.716;7.086;2023-09-19T07:26:12;100044.34;;;15.54;100.00
32131;BME280;18639;50.716;7.086;2023-09-19T07:28:38;100030.63;;;15.52;100.00
32131;BME280;18639;50.716;7.086;2023-09-19T07:31:03;100030.47;;;15.64;100.00
32131;BME280;18639;50.716;7.086;2023-09-19T07:33:30;100083.09;;;16.06;100.00
32131;BME280;18639;50.716;7.086;2023-09-19T07:35:55;100040.34;;;15.79;100.00
32131;BME280;18639;50.716;7.086;2023-09-19T07:38:20;100091.84;;;16.14;100.00
32131;BME280;18639;50.716;7.086;2023-09-19T07:40:46;100086.63;;;16.14;100.00
32131;BME280;18639;50.716;7.086;2023-09-19T07:43:11;100090.41;;;16.29;100.00
32131;BME280;18639;50.716;7.086;2023-09-19T07:45:37;100062.47;;;16.22;100.00
32131;BME280;18639;50.716;7.086;2023-09-19T07:48:02;100082.03;;;16.45;100.00
32131;BME280;18639;50.716;7.086;2023-09-19T07:50:30;100047.72;;;16.30;100.00
32131;BME280;18639;50.716;7.086;2023-09-19T07:52:55;100085.78;;;16.70;100.00
32131;BME280;18639;50.716;7.086;2023-09-19T07:55:21;100092.28;;;16.83;100.00
32131;BME280;18639;50.716;7.086;2023-09-19T07:57:52;100094.28;;;16.99;100.00
32131;BME280;18639;50.716;7.086;2023-09-19T08:00:17;100071.31;;;17.03;100.00
32131;BME280;18639;50.716;7.086;2023-09-19T08:02:43;100094.25;;;17.26;100.00
32131;BME280;18639;50.716;7.086;2023-09-19T08:05:09;100095.38;;;17.42;100.00
32131;BME280;18639;50.716;7.086;2023-09-19T08:07:39;100042.53;;;17.12;100.00
32131;BME280;18639;50.716;7.086;2023-09-19T08:10:06;100063.00;;;17.35;100.00
32131;BME280;18639;50.716;7.086;2023-09-19T08:12:52;100093.31;;;17.63;100.00
32131;BME280;18639;50.716;7.086;2023-09-19T08:15:23;100098.31;;;17.74;100.00
32131;BME280;18639;50.716;7.086;2023-09-19T08:17:49;100045.22;;;17.38;100.00
32131;BME280;18639;50.716;7.086;2023-09-19T08:20:15;100104.44;;;17.83;100.00
32131;BME280;18639;50.716;7.086;2023-09-19T08:22:50;100105.09;;;17.85;100.00
32131;BME280;18639;50.716;7.086;2023-09-19T08:25:25;100069.78;;;17.81;100.00
32131;BME280;18639;50.716;7.086;2023-09-19T08:27:50;100087.72;;;18.01;100.00
32131;BME280;18639;50.716;7.086;2023-09-19T08:30:16;100112.63;;;18.05;100.00
32131;BME280;18639;50.716;7.086;2023-09-19T08:32:43;100099.94;;;18.19;100.00
32131;BME280;18639;50.716;7.086;2023-09-19T08:35:10;100103.78;;;18.32;100.00
32131;BME280;18639;50.716;7.086;2023-09-19T08:37:36;100103.38;;;18.45;100.00
32131;BME280;18639;50.716;7.086;2023-09-19T08:40:01;100095.66;;;18.61;100.00
32131;BME280;18639;50.716;7.086;2023-09-19T08:42:27;100117.34;;;18.87;100.00
32131;BME280;18639;50.716;7.086;2023-09-19T08:44:52;100096.25;;;18.89;100.00
32131;BME280;18639;50.716;7.086;2023-09-19T08:47:29;100106.63;;;19.07;100.00
32131;BME280;18639;50.716;7.086;2023-09-19T08:50:02;100110.78;;;19.33;100.00
32131;BME280;18639;50.716;7.086;2023-09-19T08:52:33;100113.13;;;19.53;100.00
32131;BME280;18639;50.716;7.086;2023-09-19T08:55:02;100097.56;;;19.51;100.00
32131;BME280;18639;50.716;7.086;2023-09-19T08:57:36;100093.81;;;19.54;97.43
32131;BME280;18639;50.716;7.086;2023-09-19T09:00:07;100091.69;;;19.65;89.55
32131;BME280;18639;50.716;7.086;2023-09-19T09:02:40;100102.13;;;20.14;86.32
32131;BME280;18639;50.716;7.086;2023-09-19T09:05:08;100091.47;;;20.32;87.39
32131;BME280;18639;50.716;7.086;2023-09-19T09:07:35;100097.50;;;20.56;82.99
32131;BME280;18639;50.716;7.086;2023-09-19T09:10:05;100089.44;;;20.58;79.41
32131;BME280;18639;50.716;7.086;2023-09-19T09:12:31;100099.88;;;20.74;74.22
32131;BME280;18639;50.716;7.086;2023-09-19T09:14:57;100111.38;;;21.20;71.48
32131;BME280;18639;50.716;7.086;2023-09-19T09:17:26;100074.81;;;20.94;76.11
32131;BME280;18639;50.716;7.086;2023-09-19T09:19:55;100108.13;;;21.41;75.79
32131;BME280;18639;50.716;7.086;2023-09-19T09:22:21;100091.72;;;21.54;76.12
32131;BME280;18639;50.716;7.086;2023-09-19T09:24:53;100111.53;;;21.87;75.02
32131;BME280;18639;50.716;7.086;2023-09-19T09:27:19;100101.50;;;21.68;71.41
32131;BME280;18639;50.716;7.086;2023-09-19T09:29:47;100105.63;;;21.85;68.33
32131;BME280;18639;50.716;7.086;2023-09-19T09:34:51;100116.38;;;22.36;70.05
32131;BME280;18639;50.716;7.086;2023-09-19T09:37:17;100098.47;;;22.16;67.75
32131;BME280;18639;50.716;7.086;2023-09-19T09:39:55;100084.28;;;22.03;65.24
32131;BME280;18639;50.716;7.086;2023-09-19T09:45:32;100075.94;;;21.99;66.74
32131;BME280;18639;50.716;7.086;2023-09-19T09:47:58;100089.88;;;21.62;65.65
32131;BME280;18639;50.716;7.086;2023-09-19T09:50:30;100096.28;;;21.82;67.95
32131;BME280;18639;50.716;7.086;2023-09-19T09:56:04;100098.63;;;22.00;64.34
32131;BME280;18639;50.716;7.086;2023-09-19T09:58:34;100096.28;;;22.05;63.33
32131;BME280;18639;50.716;7.086;2023-09-19T10:01:01;100085.25;;;21.64;62.47
32131;BME280;18639;50.716;7.086;2023-09-19T10:03:40;100088.97;;;21.93;64.08
32131;BME280;18639;50.716;7.086;2023-09-19T10:06:14;100095.19;;;22.00;65.03
32131;BME280;18639;50.716;7.086;2023-09-19T10:09:08;100085.81;;;21.97;63.39
32131;BME280;18639;50.716;7.086;2023-09-19T10:12:03;100102.38;;;21.83;66.50
32131;BME280;18639;50.716;7.086;2023-09-19T10:14:30;100092.22;;;21.34;63.67
32131;BME280;18639;50.716;7.086;2023-09-19T10:16:58;100094.84;;;21.34;62.95
32131;BME280;18639;50.716;7.086;2023-09-19T10:19:55;100071.97;;;20.73;68.89
32131;BME280;18639;50.716;7.086;2023-09-19T10:22:24;100080.56;;;20.98;68.70
32131;BME280;18639;50.716;7.086;2023-09-19T10:24:53;100067.81;;;20.87;67.35
32131;BME280;18639;50.716;7.086;2023-09-19T10:27:22;100060.47;;;21.05;66.70
32131;BME280;18639;50.716;7.086;2023-09-19T10:29:52;100076.44;;;21.34;68.53
32131;BME280;18639;50.716;7.086;2023-09-19T10:32:22;100060.75;;;21.18;67.16
32131;BME280;18639;50.716;7.086;2023-09-19T10:34:49;100069.38;;;21.04;64.33
32131;BME280;18639;50.716;7.086;2023-09-19T10:37:20;100077.44;;;20.64;65.28
32131;BME280;18639;50.716;7.086;2023-09-19T10:39:51;100050.16;;;20.73;66.21
32131;BME280;18639;50.716;7.086;2023-09-19T10:42:19;100074.47;;;20.67;67.42
32131;BME280;18639;50.716;7.086;2023-09-19T10:44:46;100066.47;;;20.60;65.94
32131;BME280;18639;50.716;7.086;2023-09-19T10:47:12;100056.53;;;20.31;68.90
32131;BME280;18639;50.716;7.086;2023-09-19T10:49:48;100051.81;;;20.18;68.93
32131;BME280;18639;50.716;7.086;2023-09-19T10:52:15;100042.28;;;20.09;66.75
32131;BME280;18639;50.716;7.086;2023-09-19T10:54:46;100072.63;;;20.12;68.50
32131;BME280;18639;50.716;7.086;2023-09-19T10:57:19;100059.53;;;19.88;68.29
32131;BME280;18639;50.716;7.086;2023-09-19T11:00:20;100069.56;;;19.84;68.14
32131;BME280;18639;50.716;7.086;2023-09-19T11:05:42;100069.56;;;19.84;70.56
32131;BME280;18639;50.716;7.086;2023-09-19T11:08:08;100030.88;;;19.62;69.42
32131;BME280;18639;50.716;7.086;2023-09-19T11:10:49;100072.31;;;20.07;70.34
32131;BME280;18639;50.716;7.086;2023-09-19T11:13:29;100064.91;;;20.10;70.17
32131;BME280;18639;50.716;7.086;2023-09-19T11:26:47;100035.09;;;20.58;71.47
32131;BME280;18639;50.716;7.086;2023-09-19T11:29:29;100042.38;;;20.48;65.65
32131;BME280;18639;50.716;7.086;2023-09-19T11:31:56;100049.94;;;20.43;63.53
32131;BME280;18639;50.716;7.086;2023-09-19T11:34:42;100051.59;;;20.44;68.21
32131;BME280;18639;50.716;7.086;2023-09-19T11:39:37;100051.53;;;20.52;69.68
32131;BME280;18639;50.716;7.086;2023-09-19T11:45:07;100048.81;;;20.46;69.80
32131;BME280;18639;50.716;7.086;2023-09-19T11:47:33;100062.03;;;20.52;72.69
32131;BME280;18639;50.716;7.086;2023-09-19T11:50:01;100054.38;;;20.27;65.65
32131;BME280;18639;50.716;7.086;2023-09-19T11:52:27;100075.06;;;20.22;63.75
32131;BME280;18639;50.716;7.086;2023-09-19T11:54:59;100054.59;;;20.09;63.88
32131;BME280;18639;50.716;7.086;2023-09-19T11:57:27;100079.00;;;20.26;64.36
32131;BME280;18639;50.716;7.086;2023-09-19T11:59:55;100075.72;;;20.24;64.26
32131;BME280;18639;50.716;7.086;2023-09-19T12:02:48;100053.94;;;20.07;65.32
32131;BME280;18639;50.716;7.086;2023-09-19T12:05:28;100068.34;;;20.27;63.64
32131;BME280;18639;50.716;7.086;2023-09-19T12:07:53;100069.03;;;20.13;63.42
32131;BME280;18639;50.716;7.086;2023-09-19T12:10:22;100076.25;;;20.11;63.22
32131;BME280;18639;50.716;7.086;2023-09-19T12:12:48;100079.38;;;20.06;63.69
32131;BME280;18639;50.716;7.086;2023-09-19T12:15:14;100057.06;;;19.94;64.83
32131;BME280;18639;50.716;7.086;2023-09-19T12:17:41;100047.91;;;19.90;64.24
32131;BME280;18639;50.716;7.086;2023-09-19T12:20:10;100065.94;;;20.01;63.16
32131;BME280;18639;50.716;7.086;2023-09-19T12:22:48;100068.22;;;20.12;64.47
32131;BME280;18639;50.716;7.086;2023-09-19T12:25:15;100062.13;;;20.12;63.59
32131;BME280;18639;50.716;7.086;2023-09-19T12:27:49;100066.72;;;20.18;62.43
32131;BME280;18639;50.716;7.086;2023-09-19T12:30:18;100065.41;;;20.14;68.32
32131;BME280;18639;50.716;7.086;2023-09-19T12:32:46;100069.97;;;20.20;66.11
32131;BME280;18639;50.716;7.086;2023-09-19T12:35:27;100061.78;;;20.31;63.28
32131;BME280;18639;50.716;7.086;2023-09-19T12:37:54;100060.81;;;20.24;63.96
32131;BME280;18639;50.716;7.086;2023-09-19T12:40:21;100054.84;;;20.30;64.55
32131;BME280;18639;50.716;7.086;2023-09-19T12:42:48;100074.91;;;20.31;61.98
32131;BME280;18639;50.716;7.086;2023-09-19T12:45:15;100011.66;;;19.94;62.24
32131;BME280;18639;50.716;7.086;2023-09-19T12:51:07;100049.81;;;20.21;62.90
32131;BME280;18639;50.716;7.086;2023-09-19T12:53:44;100038.03;;;20.16;66.26
32131;BME280;18639;50.716;7.086;2023-09-19T12:56:12;100049.31;;;20.25;65.28
32131;BME280;18639;50.716;7.086;2023-09-19T12:58:55;100025.56;;;20.10;63.65
32131;BME280;18639;50.716;7.086;2023-09-19T13:01:22;100024.59;;;20.11;65.07
32131;BME280;18639;50.716;7.086;2023-09-19T13:06:37;100045.72;;;20.34;65.74
32131;BME280;18639;50.716;7.086;2023-09-19T13:09:12;100040.78;;;20.39;61.29
32131;BME280;18639;50.716;7.086;2023-09-19T13:11:40;100063.88;;;20.44;63.24
32131;BME280;18639;50.716;7.086;2023-09-19T13:14:24;100054.22;;;20.36;59.99
32131;BME280;18639;50.716;7.086;2023-09-19T13:17:06;100040.78;;;20.31;62.36
32131;BME280;18639;50.716;7.086;2023-09-19T13:19:49;100039.94;;;20.31;62.61
32131;BME280;18639;50.716;7.086;2023-09-19T13:22:39;100032.56;;;20.26;62.14
32131;BME280;18639;50.716;7.086;2023-09-19T13:25:09;100021.94;;;20.19;63.55
32131;BME280;18639;50.716;7.086;2023-09-19T13:27:39;100018.16;;;20.14;63.91
32131;BME280;18639;50.716;7.086;2023-09-19T13:30:05;100021.66;;;20.06;63.18
32131;BME280;18639;50.716;7.086;2023-09-19T13:32:32;100019.34;;;20.11;64.42
32131;BME280;18639;50.716;7.086;2023-09-19T13:34:58;100018.16;;;20.14;66.75
32131;BME280;18639;50.716;7.086;2023-09-19T13:37:23;100006.56;;;20.08;66.08
32131;BME280;18639;50.716;7.086;2023-09-19T13:39:48;100023.56;;;20.29;66.13
32131;BME280;18639;50.716;7.086;2023-09-19T13:42:14;100005.72;;;20.16;67.59
32131;BME280;18639;50.716;7.086;2023-09-19T13:44:39;100002.13;;;20.09;65.57
32131;BME280;18639;50.716;7.086;2023-09-19T13:47:06;100013.28;;;20.11;64.27
32131;BME280;18639;50.716;7.086;2023-09-19T13:49:35;100013.94;;;20.13;65.43